Stilwell, Kansas
Current Conditions -  °F | °C
As of 9:53 PM on Wednesday 17 Dec 2014 (Local Time) from KOJC Reporting Station
Overcast Overcast  
Wind Chill: 23°   Ceiling: 7000
Heat Index: 30°   Visibility: 10mi
Dew Point: 23°   Wind: 7mph
Humidity: 75%   Direction: 110°ESE
Pressure: 30.22"   Gusts: NA
Location:  38.77°N, 94.66°W
Report Text: KOJC 180353Z AUTO 11006KT 10SM SCT043 BKN070 OVC095 M01/M05 A3022 RMK AO2 SLP245 T10111050
Loading
Personal Weather Stations






























Interactive Weather Map New forecast layout! Learn more

10-Day Weather Forecast

Advertisements
Track Severe Weather on mobile